sensor_id;sensor_type;location;lat;lon;timestamp;P1;durP1;ratioP1;P2;durP2;ratioP2
10687;SDS011;5392;42.688;23.298;2023-04-07T00:02:05;8.05;;;5.80;;
10687;SDS011;5392;42.688;23.298;2023-04-07T00:04:32;6.90;;;6.20;;
10687;SDS011;5392;42.688;23.298;2023-04-07T00:06:59;6.90;;;5.95;;
10687;SDS011;5392;42.688;23.298;2023-04-07T00:09:26;6.95;;;6.30;;
10687;SDS011;5392;42.688;23.298;2023-04-07T00:11:52;6.95;;;6.03;;
10687;SDS011;5392;42.688;23.298;2023-04-07T00:14:19;6.93;;;6.30;;
10687;SDS011;5392;42.688;23.298;2023-04-07T00:16:46;11.05;;;7.03;;
10687;SDS011;5392;42.688;23.298;2023-04-07T00:19:12;6.93;;;6.25;;
10687;SDS011;5392;42.688;23.298;2023-04-07T00:21:39;7.07;;;6.43;;
10687;SDS011;5392;42.688;23.298;2023-04-07T00:24:06;9.13;;;6.88;;
10687;SDS011;5392;42.688;23.298;2023-04-07T00:26:33;6.75;;;5.88;;
10687;SDS011;5392;42.688;23.298;2023-04-07T00:28:59;8.00;;;6.85;;
10687;SDS011;5392;42.688;23.298;2023-04-07T00:31:26;6.72;;;6.13;;
10687;SDS011;5392;42.688;23.298;2023-04-07T00:33:53;6.80;;;6.05;;
10687;SDS011;5392;42.688;23.298;2023-04-07T00:36:21;7.47;;;5.85;;
10687;SDS011;5392;42.688;23.298;2023-04-07T00:38:48;6.93;;;6.07;;
10687;SDS011;5392;42.688;23.298;2023-04-07T00:41:15;7.55;;;6.85;;
10687;SDS011;5392;42.688;23.298;2023-04-07T00:43:41;7.20;;;6.50;;
10687;SDS011;5392;42.688;23.298;2023-04-07T00:46:08;7.20;;;6.32;;
10687;SDS011;5392;42.688;23.298;2023-04-07T00:48:35;6.88;;;6.28;;
10687;SDS011;5392;42.688;23.298;2023-04-07T00:51:02;7.63;;;5.93;;
10687;SDS011;5392;42.688;23.298;2023-04-07T00:53:30;8.88;;;6.72;;
10687;SDS011;5392;42.688;23.298;2023-04-07T00:55:57;10.25;;;5.82;;
10687;SDS011;5392;42.688;23.298;2023-04-07T00:58:24;6.32;;;5.60;;
10687;SDS011;5392;42.688;23.298;2023-04-07T01:00:54;7.38;;;6.45;;
10687;SDS011;5392;42.688;23.298;2023-04-07T01:03:32;7.68;;;5.32;;
10687;SDS011;5392;42.688;23.298;2023-04-07T01:06:02;6.43;;;5.82;;
10687;SDS011;5392;42.688;23.298;2023-04-07T01:14:18;8.93;;;6.25;;
10687;SDS011;5392;42.688;23.298;2023-04-07T01:16:49;8.23;;;6.90;;
10687;SDS011;5392;42.688;23.298;2023-04-07T01:22:12;8.60;;;6.47;;
10687;SDS011;5392;42.688;23.298;2023-04-07T01:27:30;8.15;;;6.88;;
10687;SDS011;5392;42.688;23.298;2023-04-07T01:30:03;7.32;;;6.72;;
10687;SDS011;5392;42.688;23.298;2023-04-07T01:32:34;8.05;;;5.90;;
10687;SDS011;5392;42.688;23.298;2023-04-07T01:35:03;8.80;;;6.25;;
10687;SDS011;5392;42.688;23.298;2023-04-07T01:37:31;6.68;;;5.97;;
10687;SDS011;5392;42.688;23.298;2023-04-07T01:39:59;7.15;;;5.80;;
10687;SDS011;5392;42.688;23.298;2023-04-07T01:42:26;6.63;;;5.95;;
10687;SDS011;5392;42.688;23.298;2023-04-07T01:44:54;6.65;;;5.90;;
10687;SDS011;5392;42.688;23.298;2023-04-07T01:47:22;6.45;;;5.82;;
10687;SDS011;5392;42.688;23.298;2023-04-07T01:49:53;6.38;;;5.57;;
10687;SDS011;5392;42.688;23.298;2023-04-07T01:52:20;7.50;;;5.43;;
10687;SDS011;5392;42.688;23.298;2023-04-07T01:54:47;7.20;;;5.63;;
10687;SDS011;5392;42.688;23.298;2023-04-07T01:57:14;7.10;;;5.85;;
10687;SDS011;5392;42.688;23.298;2023-04-07T01:59:41;6.53;;;5.90;;
10687;SDS011;5392;42.688;23.298;2023-04-07T02:02:08;6.63;;;5.20;;
10687;SDS011;5392;42.688;23.298;2023-04-07T02:04:36;5.93;;;5.25;;
10687;SDS011;5392;42.688;23.298;2023-04-07T02:07:18;6.25;;;5.75;;
10687;SDS011;5392;42.688;23.298;2023-04-07T02:09:50;7.28;;;5.35;;
10687;SDS011;5392;42.688;23.298;2023-04-07T02:12:21;10.90;;;5.13;;
10687;SDS011;5392;42.688;23.298;2023-04-07T02:14:51;8.35;;;5.28;;
10687;SDS011;5392;42.688;23.298;2023-04-07T02:17:20;5.63;;;5.10;;
10687;SDS011;5392;42.688;23.298;2023-04-07T02:19:49;7.00;;;5.30;;
10687;SDS011;5392;42.688;23.298;2023-04-07T02:22:18;8.07;;;5.20;;
10687;SDS011;5392;42.688;23.298;2023-04-07T02:24:45;4.65;;;4.25;;
10687;SDS011;5392;42.688;23.298;2023-04-07T02:27:11;6.10;;;5.13;;
10687;SDS011;5392;42.688;23.298;2023-04-07T02:29:38;5.47;;;4.97;;
10687;SDS011;5392;42.688;23.298;2023-04-07T02:32:05;6.35;;;4.68;;
10687;SDS011;5392;42.688;23.298;2023-04-07T02:34:32;5.32;;;4.47;;
10687;SDS011;5392;42.688;23.298;2023-04-07T02:36:58;5.65;;;4.80;;
10687;SDS011;5392;42.688;23.298;2023-04-07T02:39:25;5.68;;;4.63;;
10687;SDS011;5392;42.688;23.298;2023-04-07T02:41:52;5.13;;;4.63;;
10687;SDS011;5392;42.688;23.298;2023-04-07T02:44:18;9.10;;;5.80;;
10687;SDS011;5392;42.688;23.298;2023-04-07T02:46:45;12.15;;;8.52;;
10687;SDS011;5392;42.688;23.298;2023-04-07T02:49:11;12.23;;;10.10;;
10687;SDS011;5392;42.688;23.298;2023-04-07T02:51:38;13.18;;;10.93;;
10687;SDS011;5392;42.688;23.298;2023-04-07T02:54:05;16.27;;;11.10;;
10687;SDS011;5392;42.688;23.298;2023-04-07T02:56:31;14.13;;;10.95;;
10687;SDS011;5392;42.688;23.298;2023-04-07T02:58:58;13.13;;;11.80;;
10687;SDS011;5392;42.688;23.298;2023-04-07T03:01:25;15.05;;;12.13;;
10687;SDS011;5392;42.688;23.298;2023-04-07T03:03:53;14.27;;;11.30;;
10687;SDS011;5392;42.688;23.298;2023-04-07T03:06:20;10.60;;;9.10;;
10687;SDS011;5392;42.688;23.298;2023-04-07T03:08:46;11.32;;;8.55;;
10687;SDS011;5392;42.688;23.298;2023-04-07T03:11:13;8.88;;;5.75;;
10687;SDS011;5392;42.688;23.298;2023-04-07T03:13:40;6.30;;;5.78;;
10687;SDS011;5392;42.688;23.298;2023-04-07T03:16:06;9.50;;;5.53;;
10687;SDS011;5392;42.688;23.298;2023-04-07T03:18:33;9.15;;;5.28;;
10687;SDS011;5392;42.688;23.298;2023-04-07T03:20:59;5.82;;;4.57;;
10687;SDS011;5392;42.688;23.298;2023-04-07T03:23:26;5.18;;;4.78;;
10687;SDS011;5392;42.688;23.298;2023-04-07T03:25:54;6.07;;;4.80;;
10687;SDS011;5392;42.688;23.298;2023-04-07T03:28:22;5.05;;;4.70;;
10687;SDS011;5392;42.688;23.298;2023-04-07T03:30:49;5.00;;;4.50;;
10687;SDS011;5392;42.688;23.298;2023-04-07T03:33:16;9.32;;;5.22;;
10687;SDS011;5392;42.688;23.298;2023-04-07T03:35:43;5.93;;;4.20;;
10687;SDS011;5392;42.688;23.298;2023-04-07T03:38:09;9.38;;;5.57;;
10687;SDS011;5392;42.688;23.298;2023-04-07T03:40:36;7.32;;;5.28;;
10687;SDS011;5392;42.688;23.298;2023-04-07T03:43:03;6.82;;;4.63;;
10687;SDS011;5392;42.688;23.298;2023-04-07T03:45:29;10.13;;;4.57;;
10687;SDS011;5392;42.688;23.298;2023-04-07T03:47:56;9.77;;;5.25;;
10687;SDS011;5392;42.688;23.298;2023-04-07T03:50:23;7.50;;;4.80;;
10687;SDS011;5392;42.688;23.298;2023-04-07T03:52:50;6.80;;;4.85;;
10687;SDS011;5392;42.688;23.298;2023-04-07T03:55:16;7.03;;;4.47;;
10687;SDS011;5392;42.688;23.298;2023-04-07T03:57:43;8.52;;;5.32;;
10687;SDS011;5392;42.688;23.298;2023-04-07T04:00:10;9.38;;;5.03;;
10687;SDS011;5392;42.688;23.298;2023-04-07T04:02:38;11.95;;;5.45;;
10687;SDS011;5392;42.688;23.298;2023-04-07T04:05:04;4.72;;;4.32;;
10687;SDS011;5392;42.688;23.298;2023-04-07T04:07:31;9.30;;;5.68;;
10687;SDS011;5392;42.688;23.298;2023-04-07T04:09:59;12.90;;;5.55;;
10687;SDS011;5392;42.688;23.298;2023-04-07T04:12:25;9.77;;;4.80;;
10687;SDS011;5392;42.688;23.298;2023-04-07T04:14:52;13.75;;;5.25;;
10687;SDS011;5392;42.688;23.298;2023-04-07T04:17:19;12.23;;;4.22;;
10687;SDS011;5392;42.688;23.298;2023-04-07T04:19:46;9.05;;;5.15;;
10687;SDS011;5392;42.688;23.298;2023-04-07T04:22:12;10.88;;;4.45;;
10687;SDS011;5392;42.688;23.298;2023-04-07T04:24:39;10.18;;;4.90;;
10687;SDS011;5392;42.688;23.298;2023-04-07T04:27:07;17.30;;;4.97;;
10687;SDS011;5392;42.688;23.298;2023-04-07T04:29:33;15.65;;;5.03;;
10687;SDS011;5392;42.688;23.298;2023-04-07T04:32:00;12.80;;;4.75;;
10687;SDS011;5392;42.688;23.298;2023-04-07T04:34:27;10.90;;;6.03;;
10687;SDS011;5392;42.688;23.298;2023-04-07T04:36:53;12.35;;;4.60;;
10687;SDS011;5392;42.688;23.298;2023-04-07T04:39:20;11.25;;;4.95;;
10687;SDS011;5392;42.688;23.298;2023-04-07T04:41:47;14.85;;;9.02;;
10687;SDS011;5392;42.688;23.298;2023-04-07T04:44:13;17.02;;;11.57;;
10687;SDS011;5392;42.688;23.298;2023-04-07T04:46:40;19.48;;;13.73;;
10687;SDS011;5392;42.688;23.298;2023-04-07T04:49:07;25.52;;;15.07;;
10687;SDS011;5392;42.688;23.298;2023-04-07T04:51:34;21.52;;;14.93;;
10687;SDS011;5392;42.688;23.298;2023-04-07T04:54:00;23.45;;;15.20;;
10687;SDS011;5392;42.688;23.298;2023-04-07T04:56:29;27.00;;;15.65;;
10687;SDS011;5392;42.688;23.298;2023-04-07T04:58:56;23.02;;;16.30;;
10687;SDS011;5392;42.688;23.298;2023-04-07T05:01:22;21.45;;;13.93;;
10687;SDS011;5392;42.688;23.298;2023-04-07T05:03:49;21.17;;;13.60;;
10687;SDS011;5392;42.688;23.298;2023-04-07T05:06:16;24.70;;;14.85;;
10687;SDS011;5392;42.688;23.298;2023-04-07T05:08:43;21.63;;;14.95;;
10687;SDS011;5392;42.688;23.298;2023-04-07T05:11:10;22.75;;;15.10;;
10687;SDS011;5392;42.688;23.298;2023-04-07T05:13:37;23.23;;;15.40;;
10687;SDS011;5392;42.688;23.298;2023-04-07T05:16:04;21.52;;;14.40;;
10687;SDS011;5392;42.688;23.298;2023-04-07T05:18:31;21.23;;;13.90;;
10687;SDS011;5392;42.688;23.298;2023-04-07T05:20:58;17.05;;;13.30;;
10687;SDS011;5392;42.688;23.298;2023-04-07T05:23:27;17.50;;;12.18;;
10687;SDS011;5392;42.688;23.298;2023-04-07T05:25:53;21.13;;;12.65;;
10687;SDS011;5392;42.688;23.298;2023-04-07T05:28:20;20.08;;;13.70;;
10687;SDS011;5392;42.688;23.298;2023-04-07T05:30:47;25.65;;;15.52;;
10687;SDS011;5392;42.688;23.298;2023-04-07T05:33:14;22.00;;;13.48;;
10687;SDS011;5392;42.688;23.298;2023-04-07T05:35:42;16.05;;;12.25;;
10687;SDS011;5392;42.688;23.298;2023-04-07T05:38:10;12.40;;;11.07;;
10687;SDS011;5392;42.688;23.298;2023-04-07T05:40:37;11.95;;;10.57;;
10687;SDS011;5392;42.688;23.298;2023-04-07T05:43:04;13.85;;;11.32;;
10687;SDS011;5392;42.688;23.298;2023-04-07T05:45:31;17.33;;;12.27;;
10687;SDS011;5392;42.688;23.298;2023-04-07T05:47:57;14.80;;;11.40;;
10687;SDS011;5392;42.688;23.298;2023-04-07T05:50:24;15.63;;;12.20;;
10687;SDS011;5392;42.688;23.298;2023-04-07T05:52:51;17.05;;;13.25;;
10687;SDS011;5392;42.688;23.298;2023-04-07T05:55:17;16.60;;;12.77;;
10687;SDS011;5392;42.688;23.298;2023-04-07T05:57:44;18.05;;;13.60;;
10687;SDS011;5392;42.688;23.298;2023-04-07T06:00:11;17.73;;;13.02;;
10687;SDS011;5392;42.688;23.298;2023-04-07T06:02:38;20.85;;;13.15;;
10687;SDS011;5392;42.688;23.298;2023-04-07T06:05:05;22.25;;;13.65;;
10687;SDS011;5392;42.688;23.298;2023-04-07T06:07:32;20.60;;;12.52;;
10687;SDS011;5392;42.688;23.298;2023-04-07T06:09:59;20.73;;;11.60;;
10687;SDS011;5392;42.688;23.298;2023-04-07T06:12:26;11.38;;;10.23;;
10687;SDS011;5392;42.688;23.298;2023-04-07T06:14:53;20.17;;;11.43;;
10687;SDS011;5392;42.688;23.298;2023-04-07T06:17:21;20.02;;;11.63;;
10687;SDS011;5392;42.688;23.298;2023-04-07T06:19:48;11.65;;;9.77;;
10687;SDS011;5392;42.688;23.298;2023-04-07T06:22:15;11.95;;;5.65;;
10687;SDS011;5392;42.688;23.298;2023-04-07T06:24:42;24.10;;;11.05;;
10687;SDS011;5392;42.688;23.298;2023-04-07T06:27:09;16.25;;;9.05;;
10687;SDS011;5392;42.688;23.298;2023-04-07T06:29:35;14.48;;;9.30;;
10687;SDS011;5392;42.688;23.298;2023-04-07T06:32:02;6.47;;;5.90;;
10687;SDS011;5392;42.688;23.298;2023-04-07T06:34:29;16.27;;;5.55;;
10687;SDS011;5392;42.688;23.298;2023-04-07T06:36:55;6.25;;;4.45;;
10687;SDS011;5392;42.688;23.298;2023-04-07T06:39:25;14.05;;;6.18;;
10687;SDS011;5392;42.688;23.298;2023-04-07T06:41:52;4.88;;;3.35;;
10687;SDS011;5392;42.688;23.298;2023-04-07T06:44:18;3.33;;;2.63;;
10687;SDS011;5392;42.688;23.298;2023-04-07T06:46:45;2.97;;;2.80;;
10687;SDS011;5392;42.688;23.298;2023-04-07T06:49:14;2.55;;;2.35;;
10687;SDS011;5392;42.688;23.298;2023-04-07T06:51:41;6.88;;;3.35;;
10687;SDS011;5392;42.688;23.298;2023-04-07T06:54:08;10.70;;;3.50;;
10687;SDS011;5392;42.688;23.298;2023-04-07T06:56:41;4.05;;;3.45;;
10687;SDS011;5392;42.688;23.298;2023-04-07T06:59:08;5.13;;;3.33;;
10687;SDS011;5392;42.688;23.298;2023-04-07T07:01:35;9.25;;;2.97;;
10687;SDS011;5392;42.688;23.298;2023-04-07T07:04:03;3.33;;;2.78;;
10687;SDS011;5392;42.688;23.298;2023-04-07T07:06:31;6.53;;;3.70;;
10687;SDS011;5392;42.688;23.298;2023-04-07T07:08:58;7.32;;;3.25;;
10687;SDS011;5392;42.688;23.298;2023-04-07T07:11:26;18.13;;;3.67;;
10687;SDS011;5392;42.688;23.298;2023-04-07T07:13:52;9.23;;;2.85;;
10687;SDS011;5392;42.688;23.298;2023-04-07T07:16:19;6.30;;;3.85;;
10687;SDS011;5392;42.688;23.298;2023-04-07T07:18:46;8.23;;;4.93;;
10687;SDS011;5392;42.688;23.298;2023-04-07T07:21:13;6.10;;;2.90;;
10687;SDS011;5392;42.688;23.298;2023-04-07T07:23:39;6.47;;;3.53;;
10687;SDS011;5392;42.688;23.298;2023-04-07T07:26:06;44.00;;;26.35;;
10687;SDS011;5392;42.688;23.298;2023-04-07T07:28:33;60.03;;;32.40;;
10687;SDS011;5392;42.688;23.298;2023-04-07T07:30:59;29.15;;;20.50;;
10687;SDS011;5392;42.688;23.298;2023-04-07T07:33:26;19.27;;;7.93;;
10687;SDS011;5392;42.688;23.298;2023-04-07T07:35:52;12.98;;;5.68;;
10687;SDS011;5392;42.688;23.298;2023-04-07T07:38:19;6.30;;;3.92;;
10687;SDS011;5392;42.688;23.298;2023-04-07T07:40:46;8.15;;;3.15;;
10687;SDS011;5392;42.688;23.298;2023-04-07T07:43:13;4.63;;;2.67;;
10687;SDS011;5392;42.688;23.298;2023-04-07T07:45:39;5.45;;;2.42;;
10687;SDS011;5392;42.688;23.298;2023-04-07T07:48:06;3.60;;;2.17;;
10687;SDS011;5392;42.688;23.298;2023-04-07T07:50:33;7.20;;;2.83;;
10687;SDS011;5392;42.688;23.298;2023-04-07T07:52:59;5.53;;;2.55;;
10687;SDS011;5392;42.688;23.298;2023-04-07T07:55:26;5.68;;;2.70;;
10687;SDS011;5392;42.688;23.298;2023-04-07T07:57:53;5.70;;;2.78;;
10687;SDS011;5392;42.688;23.298;2023-04-07T08:00:19;4.18;;;3.33;;
10687;SDS011;5392;42.688;23.298;2023-04-07T08:02:46;4.40;;;3.35;;
10687;SDS011;5392;42.688;23.298;2023-04-07T08:05:13;5.93;;;3.90;;
10687;SDS011;5392;42.688;23.298;2023-04-07T08:07:41;10.40;;;6.13;;
10687;SDS011;5392;42.688;23.298;2023-04-07T08:10:26;8.90;;;3.05;;
10687;SDS011;5392;42.688;23.298;2023-04-07T08:12:52;3.15;;;2.90;;
10687;SDS011;5392;42.688;23.298;2023-04-07T08:15:19;5.80;;;2.92;;
10687;SDS011;5392;42.688;23.298;2023-04-07T08:17:46;6.30;;;2.65;;
10687;SDS011;5392;42.688;23.298;2023-04-07T08:20:13;7.40;;;3.17;;
10687;SDS011;5392;42.688;23.298;2023-04-07T08:22:40;4.90;;;2.88;;
10687;SDS011;5392;42.688;23.298;2023-04-07T08:25:08;6.35;;;3.05;;
10687;SDS011;5392;42.688;23.298;2023-04-07T08:27:35;4.28;;;2.58;;
10687;SDS011;5392;42.688;23.298;2023-04-07T08:30:03;5.00;;;3.20;;
10687;SDS011;5392;42.688;23.298;2023-04-07T08:32:34;2.45;;;2.17;;
10687;SDS011;5392;42.688;23.298;2023-04-07T08:35:02;4.53;;;2.47;;
10687;SDS011;5392;42.688;23.298;2023-04-07T08:37:30;9.02;;;3.03;;
10687;SDS011;5392;42.688;23.298;2023-04-07T08:39:57;2.80;;;2.60;;
10687;SDS011;5392;42.688;23.298;2023-04-07T08:42:25;3.28;;;2.30;;
10687;SDS011;5392;42.688;23.298;2023-04-07T08:44:54;3.90;;;2.25;;
10687;SDS011;5392;42.688;23.298;2023-04-07T08:47:25;1.88;;;1.77;;
10687;SDS011;5392;42.688;23.298;2023-04-07T08:49:56;1.80;;;1.70;;
10687;SDS011;5392;42.688;23.298;2023-04-07T08:52:31;2.60;;;2.28;;
10687;SDS011;5392;42.688;23.298;2023-04-07T08:55:07;3.13;;;2.42;;
10687;SDS011;5392;42.688;23.298;2023-04-07T08:57:34;4.93;;;3.10;;
10687;SDS011;5392;42.688;23.298;2023-04-07T09:00:02;3.08;;;2.40;;
10687;SDS011;5392;42.688;23.298;2023-04-07T09:02:37;6.20;;;4.93;;
10687;SDS011;5392;42.688;23.298;2023-04-07T09:05:05;4.75;;;4.03;;
10687;SDS011;5392;42.688;23.298;2023-04-07T09:07:34;8.25;;;4.45;;
10687;SDS011;5392;42.688;23.298;2023-04-07T09:10:02;3.72;;;2.95;;
10687;SDS011;5392;42.688;23.298;2023-04-07T09:12:30;5.10;;;3.15;;
10687;SDS011;5392;42.688;23.298;2023-04-07T09:14:57;5.28;;;4.60;;
10687;SDS011;5392;42.688;23.298;2023-04-07T09:17:24;3.67;;;3.50;;
10687;SDS011;5392;42.688;23.298;2023-04-07T09:19:56;4.90;;;4.07;;
10687;SDS011;5392;42.688;23.298;2023-04-07T09:22:42;3.53;;;3.13;;
10687;SDS011;5392;42.688;23.298;2023-04-07T09:25:13;3.25;;;2.83;;
10687;SDS011;5392;42.688;23.298;2023-04-07T09:30:29;5.30;;;3.50;;
10687;SDS011;5392;42.688;23.298;2023-04-07T09:32:57;3.42;;;3.13;;
10687;SDS011;5392;42.688;23.298;2023-04-07T09:35:25;3.42;;;3.22;;
10687;SDS011;5392;42.688;23.298;2023-04-07T09:38:06;3.83;;;3.03;;
10687;SDS011;5392;42.688;23.298;2023-04-07T09:40:35;5.60;;;3.28;;
10687;SDS011;5392;42.688;23.298;2023-04-07T09:43:03;3.80;;;3.50;;
10687;SDS011;5392;42.688;23.298;2023-04-07T09:45:31;4.90;;;4.53;;
10687;SDS011;5392;42.688;23.298;2023-04-07T09:48:05;5.10;;;4.25;;
10687;SDS011;5392;42.688;23.298;2023-04-07T09:50:33;8.98;;;5.30;;
10687;SDS011;5392;42.688;23.298;2023-04-07T09:53:01;5.90;;;3.80;;
10687;SDS011;5392;42.688;23.298;2023-04-07T09:55:29;9.38;;;6.07;;
10687;SDS011;5392;42.688;23.298;2023-04-07T09:57:59;4.78;;;4.43;;
10687;SDS011;5392;42.688;23.298;2023-04-07T10:00:27;4.38;;;4.00;;
10687;SDS011;5392;42.688;23.298;2023-04-07T10:02:54;3.83;;;3.17;;
10687;SDS011;5392;42.688;23.298;2023-04-07T10:05:21;3.45;;;3.13;;
10687;SDS011;5392;42.688;23.298;2023-04-07T10:07:49;5.35;;;3.95;;
10687;SDS011;5392;42.688;23.298;2023-04-07T10:10:16;2.95;;;2.75;;
10687;SDS011;5392;42.688;23.298;2023-04-07T10:12:43;3.28;;;3.08;;
10687;SDS011;5392;42.688;23.298;2023-04-07T10:15:11;3.72;;;3.03;;
10687;SDS011;5392;42.688;23.298;2023-04-07T10:17:45;5.93;;;3.88;;
10687;SDS011;5392;42.688;23.298;2023-04-07T10:20:17;3.92;;;3.22;;
10687;SDS011;5392;42.688;23.298;2023-04-07T10:22:50;3.03;;;2.83;;
10687;SDS011;5392;42.688;23.298;2023-04-07T10:25:20;2.38;;;2.28;;
10687;SDS011;5392;42.688;23.298;2023-04-07T10:27:53;5.30;;;4.30;;
10687;SDS011;5392;42.688;23.298;2023-04-07T10:30:27;6.22;;;3.47;;
10687;SDS011;5392;42.688;23.298;2023-04-07T10:32:57;3.50;;;3.30;;
10687;SDS011;5392;42.688;23.298;2023-04-07T10:35:24;6.32;;;3.63;;
10687;SDS011;5392;42.688;23.298;2023-04-07T10:40:34;2.63;;;2.53;;
10687;SDS011;5392;42.688;23.298;2023-04-07T10:43:02;6.45;;;5.07;;
10687;SDS011;5392;42.688;23.298;2023-04-07T10:46:14;3.30;;;2.70;;
10687;SDS011;5392;42.688;23.298;2023-04-07T10:48:23;2.80;;;2.60;;
10687;SDS011;5392;42.688;23.298;2023-04-07T10:53:32;2.83;;;2.63;;
10687;SDS011;5392;42.688;23.298;2023-04-07T10:56:02;4.25;;;3.40;;
10687;SDS011;5392;42.688;23.298;2023-04-07T10:58:29;4.63;;;2.60;;
10687;SDS011;5392;42.688;23.298;2023-04-07T11:03:30;3.90;;;3.60;;
10687;SDS011;5392;42.688;23.298;2023-04-07T11:06:06;5.43;;;3.53;;
10687;SDS011;5392;42.688;23.298;2023-04-07T11:08:38;4.25;;;3.88;;
10687;SDS011;5392;42.688;23.298;2023-04-07T11:11:06;3.40;;;3.10;;
10687;SDS011;5392;42.688;23.298;2023-04-07T11:13:40;2.90;;;2.70;;
10687;SDS011;5392;42.688;23.298;2023-04-07T11:16:08;3.83;;;3.63;;
10687;SDS011;5392;42.688;23.298;2023-04-07T11:18:35;3.78;;;3.42;;
10687;SDS011;5392;42.688;23.298;2023-04-07T11:21:03;3.50;;;2.78;;
10687;SDS011;5392;42.688;23.298;2023-04-07T11:23:37;3.90;;;3.63;;
10687;SDS011;5392;42.688;23.298;2023-04-07T11:26:06;3.70;;;3.38;;
10687;SDS011;5392;42.688;23.298;2023-04-07T11:28:34;3.28;;;3.08;;
10687;SDS011;5392;42.688;23.298;2023-04-07T11:31:10;3.45;;;3.15;;
10687;SDS011;5392;42.688;23.298;2023-04-07T11:33:37;3.58;;;3.08;;
10687;SDS011;5392;42.688;23.298;2023-04-07T11:36:05;4.72;;;4.07;;
10687;SDS011;5392;42.688;23.298;2023-04-07T11:38:36;3.72;;;3.42;;
10687;SDS011;5392;42.688;23.298;2023-04-07T11:41:10;5.05;;;4.55;;
10687;SDS011;5392;42.688;23.298;2023-04-07T11:43:39;3.40;;;3.20;;
10687;SDS011;5392;42.688;23.298;2023-04-07T11:46:08;3.60;;;3.30;;
10687;SDS011;5392;42.688;23.298;2023-04-07T11:48:37;7.13;;;5.78;;
10687;SDS011;5392;42.688;23.298;2023-04-07T11:51:05;4.30;;;3.70;;
10687;SDS011;5392;42.688;23.298;2023-04-07T11:53:40;6.00;;;4.68;;
10687;SDS011;5392;42.688;23.298;2023-04-07T11:56:08;7.10;;;4.18;;
10687;SDS011;5392;42.688;23.298;2023-04-07T11:58:37;4.63;;;4.25;;
10687;SDS011;5392;42.688;23.298;2023-04-07T12:01:05;8.93;;;8.00;;
10687;SDS011;5392;42.688;23.298;2023-04-07T12:03:34;6.07;;;4.82;;
10687;SDS011;5392;42.688;23.298;2023-04-07T12:06:03;4.32;;;4.03;;
10687;SDS011;5392;42.688;23.298;2023-04-07T12:08:40;4.43;;;4.03;;
10687;SDS011;5392;42.688;23.298;2023-04-07T12:11:08;3.58;;;3.28;;
10687;SDS011;5392;42.688;23.298;2023-04-07T12:13:35;4.85;;;4.55;;
10687;SDS011;5392;42.688;23.298;2023-04-07T12:16:02;5.57;;;4.78;;
10687;SDS011;5392;42.688;23.298;2023-04-07T12:18:29;6.07;;;3.60;;
10687;SDS011;5392;42.688;23.298;2023-04-07T12:20:56;5.10;;;4.65;;
10687;SDS011;5392;42.688;23.298;2023-04-07T12:23:24;4.75;;;3.95;;
10687;SDS011;5392;42.688;23.298;2023-04-07T12:25:51;5.63;;;5.10;;
10687;SDS011;5392;42.688;23.298;2023-04-07T12:28:18;3.38;;;3.13;;
10687;SDS011;5392;42.688;23.298;2023-04-07T12:30:44;4.10;;;3.63;;
10687;SDS011;5392;42.688;23.298;2023-04-07T12:33:11;2.90;;;2.70;;
10687;SDS011;5392;42.688;23.298;2023-04-07T12:35:38;4.32;;;4.00;;
10687;SDS011;5392;42.688;23.298;2023-04-07T12:38:05;6.72;;;4.00;;
10687;SDS011;5392;42.688;23.298;2023-04-07T12:40:33;3.97;;;3.78;;
10687;SDS011;5392;42.688;23.298;2023-04-07T12:43:01;4.00;;;3.65;;
10687;SDS011;5392;42.688;23.298;2023-04-07T12:45:28;3.00;;;2.80;;
10687;SDS011;5392;42.688;23.298;2023-04-07T12:47:56;5.10;;;4.60;;
10687;SDS011;5392;42.688;23.298;2023-04-07T12:50:23;4.25;;;3.88;;
10687;SDS011;5392;42.688;23.298;2023-04-07T12:52:50;4.78;;;3.38;;
10687;SDS011;5392;42.688;23.298;2023-04-07T12:55:17;3.97;;;3.67;;
10687;SDS011;5392;42.688;23.298;2023-04-07T12:57:44;8.50;;;4.18;;
10687;SDS011;5392;42.688;23.298;2023-04-07T13:00:10;4.50;;;3.88;;
10687;SDS011;5392;42.688;23.298;2023-04-07T13:02:37;5.82;;;4.85;;
10687;SDS011;5392;42.688;23.298;2023-04-07T13:05:04;7.82;;;5.75;;
10687;SDS011;5392;42.688;23.298;2023-04-07T13:07:31;4.88;;;4.47;;
10687;SDS011;5392;42.688;23.298;2023-04-07T13:10:00;5.18;;;3.70;;
10687;SDS011;5392;42.688;23.298;2023-04-07T13:12:27;6.28;;;4.22;;
10687;SDS011;5392;42.688;23.298;2023-04-07T13:14:53;5.43;;;4.93;;
10687;SDS011;5392;42.688;23.298;2023-04-07T13:17:25;5.05;;;4.38;;
10687;SDS011;5392;42.688;23.298;2023-04-07T13:19:54;3.60;;;3.20;;
10687;SDS011;5392;42.688;23.298;2023-04-07T13:22:21;4.97;;;4.57;;
10687;SDS011;5392;42.688;23.298;2023-04-07T13:24:50;6.97;;;4.15;;
10687;SDS011;5392;42.688;23.298;2023-04-07T13:27:16;5.05;;;4.65;;
10687;SDS011;5392;42.688;23.298;2023-04-07T13:29:43;8.93;;;5.32;;
10687;SDS011;5392;42.688;23.298;2023-04-07T13:32:10;5.13;;;4.72;;
10687;SDS011;5392;42.688;23.298;2023-04-07T13:34:40;4.22;;;3.65;;
10687;SDS011;5392;42.688;23.298;2023-04-07T13:37:07;6.57;;;5.18;;
10687;SDS011;5392;42.688;23.298;2023-04-07T13:39:34;3.35;;;3.05;;
10687;SDS011;5392;42.688;23.298;2023-04-07T13:42:01;6.22;;;5.18;;
10687;SDS011;5392;42.688;23.298;2023-04-07T13:44:28;3.78;;;3.30;;
10687;SDS011;5392;42.688;23.298;2023-04-07T13:46:55;6.85;;;3.88;;
10687;SDS011;5392;42.688;23.298;2023-04-07T13:49:22;5.65;;;3.60;;
10687;SDS011;5392;42.688;23.298;2023-04-07T13:51:49;4.68;;;3.55;;
10687;SDS011;5392;42.688;23.298;2023-04-07T13:54:16;3.15;;;2.83;;
10687;SDS011;5392;42.688;23.298;2023-04-07T13:56:43;7.00;;;4.68;;
10687;SDS011;5392;42.688;23.298;2023-04-07T13:59:10;4.30;;;3.85;;
10687;SDS011;5392;42.688;23.298;2023-04-07T14:01:37;8.05;;;4.28;;
10687;SDS011;5392;42.688;23.298;2023-04-07T14:04:04;4.22;;;4.03;;
10687;SDS011;5392;42.688;23.298;2023-04-07T14:06:32;5.75;;;4.53;;
10687;SDS011;5392;42.688;23.298;2023-04-07T14:08:59;5.32;;;4.82;;
10687;SDS011;5392;42.688;23.298;2023-04-07T14:11:26;5.63;;;5.05;;
10687;SDS011;5392;42.688;23.298;2023-04-07T14:13:53;5.28;;;4.55;;
10687;SDS011;5392;42.688;23.298;2023-04-07T14:16:21;5.07;;;4.57;;
10687;SDS011;5392;42.688;23.298;2023-04-07T14:18:48;7.55;;;4.30;;
10687;SDS011;5392;42.688;23.298;2023-04-07T14:21:16;7.53;;;4.85;;
10687;SDS011;5392;42.688;23.298;2023-04-07T14:23:43;7.65;;;5.22;;
10687;SDS011;5392;42.688;23.298;2023-04-07T14:26:10;6.82;;;5.30;;
10687;SDS011;5392;42.688;23.298;2023-04-07T14:28:37;7.18;;;5.97;;
10687;SDS011;5392;42.688;23.298;2023-04-07T14:31:04;5.55;;;4.63;;
10687;SDS011;5392;42.688;23.298;2023-04-07T14:33:31;6.95;;;4.82;;
10687;SDS011;5392;42.688;23.298;2023-04-07T14:35:58;6.72;;;5.38;;
10687;SDS011;5392;42.688;23.298;2023-04-07T14:38:25;6.70;;;5.18;;
10687;SDS011;5392;42.688;23.298;2023-04-07T14:40:52;5.47;;;5.03;;
10687;SDS011;5392;42.688;23.298;2023-04-07T14:43:19;5.55;;;5.07;;
10687;SDS011;5392;42.688;23.298;2023-04-07T14:45:45;5.15;;;4.70;;
10687;SDS011;5392;42.688;23.298;2023-04-07T14:48:12;5.35;;;3.95;;
10687;SDS011;5392;42.688;23.298;2023-04-07T14:50:39;6.38;;;5.05;;
10687;SDS011;5392;42.688;23.298;2023-04-07T14:53:06;6.45;;;5.10;;
10687;SDS011;5392;42.688;23.298;2023-04-07T14:55:33;4.90;;;4.50;;
10687;SDS011;5392;42.688;23.298;2023-04-07T14:58:01;5.07;;;4.45;;
10687;SDS011;5392;42.688;23.298;2023-04-07T15:00:28;5.47;;;3.00;;
10687;SDS011;5392;42.688;23.298;2023-04-07T15:02:56;4.18;;;3.83;;
10687;SDS011;5392;42.688;23.298;2023-04-07T15:05:28;3.92;;;3.60;;
10687;SDS011;5392;42.688;23.298;2023-04-07T15:07:55;5.80;;;4.97;;
10687;SDS011;5392;42.688;23.298;2023-04-07T15:10:22;5.78;;;4.13;;